createdAt,value
2019-05-01T00:01:53.587Z,23.03
2019-05-01T00:06:09.151Z,23.70
2019-05-01T00:10:12.181Z,22.93
2019-05-01T00:14:11.358Z,21.70
2019-05-01T00:18:09.912Z,21.90
2019-05-01T00:22:11.695Z,22.73
2019-05-01T00:26:10.273Z,25.60
2019-05-01T00:30:11.964Z,22.47
2019-05-01T00:34:10.740Z,23.57
2019-05-01T00:38:09.808Z,23.17
2019-05-01T00:42:08.560Z,23.07
2019-05-01T00:46:09.977Z,24.37
2019-05-01T00:50:09.822Z,23.57
2019-05-01T00:54:08.586Z,24.73
2019-05-01T00:58:09.435Z,25.93
2019-05-01T01:02:09.659Z,24.90
2019-05-01T01:06:11.486Z,25.07
2019-05-01T01:10:10.258Z,25.00
2019-05-01T01:14:11.327Z,23.57
2019-05-01T01:18:09.967Z,22.27
2019-05-01T01:22:08.545Z,21.43
2019-05-01T01:26:07.474Z,22.13
2019-05-01T01:30:11.700Z,22.77
2019-05-01T01:34:10.575Z,23.23
2019-05-01T01:38:11.604Z,22.67
2019-05-01T01:42:10.558Z,23.57
2019-05-01T01:46:28.638Z,22.60
2019-05-01T01:50:27.343Z,23.67
2019-05-01T01:54:26.293Z,23.63
2019-05-01T01:58:26.192Z,25.33
2019-05-01T02:02:37.976Z,23.73
2019-05-01T02:06:36.984Z,24.53
2019-05-01T02:10:42.967Z,24.77
2019-05-01T02:14:44.298Z,25.13
2019-05-01T02:18:43.224Z,25.63
2019-05-01T02:22:42.812Z,25.37
2019-05-01T02:26:51.022Z,26.37
2019-05-01T02:31:07.576Z,26.77
2019-05-01T02:35:07.523Z,27.40
2019-05-01T02:39:09.477Z,24.97
2019-05-01T02:43:13.193Z,22.80
2019-05-01T02:47:16.567Z,23.27
2019-05-01T02:51:16.137Z,24.37
2019-05-01T02:55:18.242Z,24.37
2019-05-01T02:59:18.546Z,23.90
2019-05-01T03:03:17.254Z,25.17
2019-05-01T03:07:21.022Z,25.77
2019-05-01T03:11:25.313Z,25.70
2019-05-01T03:15:25.047Z,25.33
2019-05-01T03:19:36.196Z,24.93
2019-05-01T03:23:37.355Z,24.53
2019-05-01T03:27:39.667Z,24.70
2019-05-01T03:31:39.811Z,26.40
2019-05-01T03:35:38.456Z,24.27
2019-05-01T03:39:38.942Z,23.50
2019-05-01T03:43:37.574Z,24.53
2019-05-01T03:47:36.307Z,25.63
2019-05-01T03:51:41.100Z,25.90
2019-05-01T03:55:45.761Z,26.20
2019-05-01T03:59:46.881Z,23.57
2019-05-01T04:03:55.234Z,35.73
2019-05-01T04:07:54.245Z,30.77
2019-05-01T04:11:52.860Z,30.80
2019-05-01T04:16:01.818Z,33.53
2019-05-01T04:19:55.729Z,32.57
2019-05-01T04:23:58.099Z,33.10
2019-05-01T04:28:04.549Z,32.63
2019-05-01T04:32:21.219Z,34.80
2019-05-01T04:36:33.155Z,33.60
2019-05-01T04:40:32.208Z,34.83
2019-05-01T04:44:37.870Z,31.90
2019-05-01T04:48:36.815Z,32.47
2019-05-01T04:52:35.740Z,36.00
2019-05-01T04:56:34.807Z,32.90
2019-05-01T05:00:34.060Z,34.53
2019-05-01T05:04:34.260Z,34.83
2019-05-01T05:08:33.613Z,37.50
2019-05-01T05:12:43.379Z,37.87
2019-05-01T05:16:56.049Z,34.73
2019-05-01T05:21:02.564Z,38.70
2019-05-01T05:25:01.600Z,38.03
2019-05-01T05:29:02.517Z,36.63
2019-05-01T05:33:03.394Z,38.40
2019-05-01T05:37:08.429Z,34.13
2019-05-01T05:41:23.506Z,38.50
2019-05-01T05:45:22.140Z,37.27
2019-05-01T05:49:24.180Z,35.10
2019-05-01T05:53:30.005Z,33.70
2019-05-01T05:57:33.315Z,36.30
2019-05-01T06:01:47.566Z,36.97
2019-05-01T06:05:59.963Z,36.77
2019-05-01T06:10:08.209Z,36.53
2019-05-01T06:14:31.314Z,36.80
2019-05-01T06:18:29.560Z,37.30
2019-05-01T06:22:35.464Z,37.70
2019-05-01T06:26:39.403Z,38.80
2019-05-01T06:30:42.065Z,38.03
2019-05-01T06:34:40.828Z,38.37
2019-05-01T06:38:56.176Z,37.53
2019-05-01T06:43:06.873Z,36.10
2019-05-01T06:47:23.490Z,40.13
2019-05-01T06:51:55.849Z,38.30
2019-05-01T06:55:54.866Z,36.63
2019-05-01T06:59:58.466Z,34.67
2019-05-01T07:04:03.488Z,38.80
2019-05-01T07:08:02.938Z,32.33
2019-05-01T07:12:07.963Z,36.27
2019-05-01T07:16:08.811Z,35.67
2019-05-01T07:20:16.854Z,38.90
2019-05-01T07:24:16.749Z,36.03
2019-05-01T07:28:20.098Z,37.90
2019-05-01T07:32:19.227Z,31.80
2019-05-01T07:36:18.236Z,36.77
2019-05-01T07:40:20.692Z,37.27
2019-05-01T07:44:19.962Z,34.50
2019-05-01T07:48:22.800Z,36.03
2019-05-01T07:52:26.376Z,35.60
2019-05-01T07:56:28.017Z,36.23
2019-05-01T08:00:37.006Z,35.87
2019-05-01T08:04:43.498Z,37.63
2019-05-01T08:08:45.067Z,38.30
2019-05-01T08:12:55.350Z,38.73
2019-05-01T08:16:58.205Z,39.40
2019-05-01T08:21:05.678Z,39.73
2019-05-01T08:25:06.727Z,43.33
2019-05-01T08:29:23.465Z,39.20
2019-05-01T08:33:40.544Z,39.00
2019-05-01T08:37:46.597Z,41.40
2019-05-01T08:41:49.966Z,41.93
2019-05-01T08:45:59.357Z,41.77
2019-05-01T08:50:00.437Z,41.50
2019-05-01T08:53:59.919Z,42.93
2019-05-01T08:58:01.053Z,43.80
2019-05-01T09:02:09.065Z,45.57
2019-05-01T09:05:59.526Z,43.37
2019-05-01T09:09:58.352Z,39.13
2019-05-01T09:14:00.078Z,42.70
2019-05-01T09:18:06.344Z,43.10
2019-05-01T09:22:08.427Z,42.93
2019-05-01T09:26:38.664Z,42.50
2019-05-01T09:30:41.454Z,42.97
2019-05-01T09:34:42.131Z,42.80
2019-05-01T09:38:40.795Z,40.67
2019-05-01T09:42:42.602Z,42.80
2019-05-01T09:46:44.366Z,40.37
2019-05-01T09:50:50.298Z,40.63
2019-05-01T09:55:00.598Z,42.87
2019-05-01T09:59:03.149Z,40.10
2019-05-01T10:03:02.185Z,43.77
2019-05-01T10:07:02.315Z,47.03
2019-05-01T10:11:05.154Z,45.20
2019-05-01T10:15:03.187Z,43.33
2019-05-01T10:19:01.743Z,48.07
2019-05-01T10:23:12.885Z,47.40
2019-05-01T10:27:08.302Z,45.30
2019-05-01T10:31:24.593Z,47.23
2019-05-01T10:35:42.447Z,48.70
2019-05-01T10:39:36.954Z,45.00
2019-05-01T10:43:38.913Z,45.57
2019-05-01T10:47:37.505Z,49.17
2019-05-01T10:51:36.147Z,49.97
2019-05-01T10:55:34.724Z,49.23
2019-05-01T10:59:37.755Z,42.57
2019-05-01T11:03:36.413Z,48.40
2019-05-01T11:07:38.127Z,48.57
2019-05-01T11:11:37.475Z,49.27
2019-05-01T11:15:38.884Z,51.13
2019-05-01T11:19:39.510Z,47.50
2019-05-01T11:23:40.106Z,48.80
2019-05-01T11:27:38.665Z,47.47
2019-05-01T11:31:44.778Z,50.60
2019-05-01T11:36:08.928Z,48.03
2019-05-01T11:40:04.897Z,48.13
2019-05-01T11:44:09.006Z,44.13
2019-05-01T11:48:10.695Z,48.27
2019-05-01T11:52:11.110Z,46.07
2019-05-01T11:56:09.718Z,48.37
2019-05-01T12:00:12.223Z,48.50
2019-05-01T12:04:10.968Z,46.37
2019-05-01T12:08:09.586Z,40.93
2019-05-01T12:12:16.356Z,51.80
2019-05-01T12:16:16.604Z,39.37
2019-05-01T12:20:16.735Z,48.73
2019-05-01T12:24:15.968Z,52.87
2019-05-01T12:28:16.096Z,51.47
2019-05-01T12:32:14.723Z,48.57
2019-05-01T12:36:15.862Z,48.73
2019-05-01T12:40:18.961Z,40.47
2019-05-01T12:44:19.207Z,48.40
2019-05-01T12:48:18.380Z,44.53
2019-05-01T12:52:49.681Z,45.87
2019-05-01T12:56:47.652Z,46.83
2019-05-01T13:00:54.225Z,38.63
2019-05-01T13:04:55.154Z,38.43
2019-05-01T13:08:56.476Z,44.40
2019-05-01T13:12:55.035Z,41.53
2019-05-01T13:16:53.754Z,45.47
2019-05-01T13:20:54.600Z,44.53
2019-05-01T13:24:54.712Z,43.63
2019-05-01T13:28:57.466Z,36.70
2019-05-01T13:32:57.085Z,43.30
2019-05-01T13:37:02.737Z,48.83
2019-05-01T13:40:57.695Z,45.07
2019-05-01T13:44:58.602Z,47.17
2019-05-01T13:49:02.985Z,45.73
2019-05-01T13:53:01.551Z,49.13
2019-05-01T13:57:01.936Z,50.23
2019-05-01T14:01:02.198Z,45.90
2019-05-01T14:05:00.926Z,50.73
2019-05-01T14:09:03.659Z,50.13
2019-05-01T14:13:02.450Z,48.67
2019-05-01T14:17:02.821Z,50.50
2019-05-01T14:21:09.778Z,52.37
2019-05-01T14:25:14.209Z,47.63
2019-05-01T14:29:12.763Z,51.13
2019-05-01T14:33:14.489Z,47.77
2019-05-01T14:37:15.276Z,49.23
2019-05-01T14:41:25.820Z,51.13
2019-05-01T14:45:27.423Z,51.20
2019-05-01T14:49:28.555Z,49.07
2019-05-01T14:53:30.047Z,50.77
2019-05-01T14:57:31.830Z,45.63
2019-05-01T15:01:30.614Z,47.20
2019-05-01T15:05:29.236Z,50.23
2019-05-01T15:09:29.769Z,48.87
2019-05-01T15:13:39.254Z,53.00
2019-05-01T15:17:39.757Z,52.03
2019-05-01T15:21:41.422Z,49.90
2019-05-01T15:25:47.917Z,46.90
2019-05-01T15:29:42.138Z,51.17
2019-05-01T15:33:40.785Z,47.30
2019-05-01T15:37:40.921Z,48.00
2019-05-01T15:41:52.904Z,46.05
2019-05-01T15:45:58.196Z,47.45
2019-05-01T15:49:52.162Z,45.20
2019-05-01T15:53:51.060Z,40.07
2019-05-01T15:57:49.719Z,45.07
2019-05-01T16:01:49.188Z,44.30
2019-05-01T16:05:49.451Z,44.87
2019-05-01T16:09:52.781Z,52.00
2019-05-01T16:13:55.582Z,40.50
2019-05-01T16:18:00.808Z,42.50
2019-05-01T16:21:59.372Z,45.47
2019-05-01T16:25:58.209Z,47.63
2019-05-01T16:29:58.983Z,44.97
2019-05-01T16:34:19.717Z,46.23
2019-05-01T16:38:30.418Z,40.30
2019-05-01T16:42:30.879Z,46.07
2019-05-01T16:46:29.711Z,46.80
2019-05-01T16:50:37.587Z,42.87
2019-05-01T16:54:42.462Z,46.63
2019-05-01T16:58:41.321Z,44.50
2019-05-01T17:02:43.500Z,43.20
2019-05-01T17:07:00.046Z,45.97
2019-05-01T17:11:01.192Z,45.07
2019-05-01T17:14:59.826Z,42.23
2019-05-01T17:18:58.923Z,44.50
2019-05-01T17:23:00.917Z,43.80
2019-05-01T17:26:59.933Z,42.23
2019-05-01T17:31:00.390Z,43.97
2019-05-01T17:35:01.813Z,42.53
2019-05-01T17:39:18.206Z,39.87
2019-05-01T17:43:16.712Z,41.20
2019-05-01T17:47:17.969Z,41.23
2019-05-01T17:51:20.852Z,41.13
2019-05-01T17:55:23.128Z,36.67
2019-05-01T17:59:22.491Z,40.10
2019-05-01T18:03:45.105Z,41.70
2019-05-01T18:07:46.868Z,41.03
2019-05-01T18:11:47.295Z,41.50
2019-05-01T18:15:51.994Z,43.60
2019-05-01T18:19:54.861Z,43.07
2019-05-01T18:24:11.138Z,40.17
2019-05-01T18:28:13.601Z,42.17
2019-05-01T18:32:28.178Z,41.20
2019-05-01T18:36:34.249Z,40.83
2019-05-01T18:40:34.518Z,41.50
2019-05-01T18:44:47.302Z,39.93
2019-05-01T18:48:48.712Z,40.60
2019-05-01T18:52:47.257Z,39.80
2019-05-01T18:56:54.594Z,41.03
2019-05-01T19:00:56.031Z,40.30
2019-05-01T19:04:54.764Z,42.90
2019-05-01T19:08:56.695Z,40.60
2019-05-01T19:12:58.699Z,41.53
2019-05-01T19:17:00.827Z,42.73
2019-05-01T19:21:01.935Z,42.50
2019-05-01T19:25:10.966Z,42.57
2019-05-01T19:29:03.552Z,44.37
2019-05-01T19:33:04.396Z,43.10
2019-05-01T19:37:22.085Z,44.10
2019-05-01T19:41:21.275Z,44.30
2019-05-01T19:45:19.955Z,45.33
2019-05-01T19:49:18.527Z,44.27
2019-05-01T19:53:20.027Z,44.43
2019-05-01T19:57:29.987Z,44.97
2019-05-01T20:01:28.956Z,45.17
2019-05-01T20:05:33.390Z,42.10
2019-05-01T20:09:31.367Z,44.30
2019-05-01T20:13:34.619Z,43.60
2019-05-01T20:17:33.686Z,42.50
2019-05-01T20:21:41.995Z,44.47
2019-05-01T20:25:51.000Z,42.83
2019-05-01T20:29:52.355Z,45.10
2019-05-01T20:33:50.936Z,43.50
2019-05-01T20:37:52.014Z,42.70
2019-05-01T20:41:54.139Z,43.47
2019-05-01T20:45:52.727Z,42.67
2019-05-01T20:49:51.295Z,43.63
2019-05-01T20:53:49.978Z,43.83
2019-05-01T20:57:49.837Z,42.63
2019-05-01T21:01:59.567Z,43.33
2019-05-01T21:06:07.729Z,43.50
2019-05-01T21:10:24.091Z,43.23
2019-05-01T21:14:21.987Z,43.93
2019-05-01T21:18:15.596Z,43.23
2019-05-01T21:22:17.793Z,41.23
2019-05-01T21:26:19.339Z,42.50
2019-05-01T21:30:23.673Z,41.33
2019-05-01T21:34:24.401Z,41.20
2019-05-01T21:38:23.415Z,44.13
2019-05-01T21:42:24.323Z,43.37
2019-05-01T21:46:23.841Z,45.17
2019-05-01T21:50:26.371Z,43.37
2019-05-01T21:54:23.067Z,42.57
2019-05-01T21:58:28.325Z,41.47
2019-05-01T22:02:26.425Z,42.90
2019-05-01T22:06:24.917Z,42.80
2019-05-01T22:10:26.588Z,43.40
2019-05-01T22:14:31.065Z,41.70
2019-05-01T22:18:34.085Z,43.60
2019-05-01T22:22:38.839Z,42.93
2019-05-01T22:26:46.097Z,43.43
2019-05-01T22:30:49.167Z,41.37
2019-05-01T22:34:50.203Z,41.23
2019-05-01T22:38:48.857Z,42.07
2019-05-01T22:42:47.516Z,42.60
2019-05-01T22:46:46.085Z,40.27
2019-05-01T22:51:04.237Z,40.70
2019-05-01T22:55:05.952Z,40.37
2019-05-01T22:59:05.373Z,40.07
2019-05-01T23:03:10.314Z,41.23
2019-05-01T23:07:11.660Z,41.60
2019-05-01T23:11:19.827Z,40.73
2019-05-01T23:15:24.088Z,40.37
2019-05-01T23:19:27.822Z,39.30
2019-05-01T23:23:27.256Z,40.10
2019-05-01T23:27:30.673Z,40.13
2019-05-01T23:31:33.125Z,38.73
2019-05-01T23:35:32.187Z,38.80
2019-05-01T23:39:39.719Z,40.83
2019-05-01T23:43:34.097Z,41.63
2019-05-01T23:47:32.706Z,40.50
2019-05-01T23:51:32.852Z,40.53
2019-05-01T23:55:31.425Z,39.93
2019-05-01T23:59:29.995Z,39.30
